Time;durP1;ratioP1;P1;durP2;ratioP2;P2;SDS_P1;SDS_P2;PMS_P1;PMS_P2;Temp;Humidity;BMP_temperature;BMP_pressure;BME280_temperature;BME280_humidity;BME280_pressure;Samples;Min_cycle;Max_cycle;Signal;HPM_P1;HPM_P2
2021/05/01 00:00:42;;;;;;;19.10;6.70;;;;;;;16.79;86.10;97122.19;4945932;28;20034;-84
2021/05/01 00:03:08;;;;;;;14.38;6.40;;;;;;;16.59;86.69;97133.97;4969394;28;20046;-85
2021/05/01 00:05:33;;;;;;;15.30;6.10;;;;;;;16.37;88.20;97131.50;4943359;28;20509;-83
2021/05/01 00:07:59;;;;;;;23.95;6.65;;;;;;;16.31;89.58;97134.78;4950440;28;20122;-84
2021/05/01 00:10:25;;;;;;;17.88;6.03;;;;;;;16.17;89.78;97129.78;4952118;28;20038;-84
2021/05/01 00:12:51;;;;;;;11.32;6.05;;;;;;;16.04;91.50;97118.41;4953371;28;20056;-84
2021/05/01 00:15:17;;;;;;;11.30;6.50;;;;;;;15.98;91.63;97111.72;4953605;28;20398;-84
2021/05/01 00:17:42;;;;;;;13.30;6.88;;;;;;;15.99;92.58;97116.13;4968968;28;20092;-84
2021/05/01 00:20:08;;;;;;;19.95;6.72;;;;;;;15.91;92.47;97117.78;4947112;28;20035;-83
2021/05/01 00:22:34;;;;;;;14.70;6.32;;;;;;;15.88;92.79;97110.84;4944559;28;20036;-84
2021/05/01 00:25:00;;;;;;;12.70;6.60;;;;;;;15.88;93.39;97127.03;4950249;28;20034;-84
2021/05/01 00:27:25;;;;;;;24.90;7.22;;;;;;;15.92;93.96;97144.66;4949743;28;20483;-84
2021/05/01 00:29:51;;;;;;;17.20;8.00;;;;;;;15.91;91.40;97131.28;4966678;28;20387;-84
2021/05/01 00:32:16;;;;;;;13.63;7.07;;;;;;;15.95;91.83;97130.88;4955623;28;20028;-84
2021/05/01 00:34:42;;;;;;;12.45;5.90;;;;;;;16.00;90.44;97130.44;4961059;28;20121;-84
2021/05/01 00:37:07;;;;;;;21.88;7.55;;;;;;;16.00;92.24;97143.94;4971306;28;20023;-84
2021/05/01 00:39:33;;;;;;;20.70;6.40;;;;;;;15.98;90.65;97135.13;4940937;28;20418;-84
2021/05/01 00:41:58;;;;;;;16.55;6.70;;;;;;;15.99;89.28;97117.97;4970386;28;20490;-84
2021/05/01 00:44:24;;;;;;;12.77;6.88;;;;;;;16.17;88.66;97140.59;4945096;28;20037;-84
2021/05/01 00:46:49;;;;;;;12.60;6.55;;;;;;;16.10;90.00;97128.63;4948161;28;20029;-84
2021/05/01 00:49:15;;;;;;;19.55;6.60;;;;;;;16.05;89.29;97136.31;4949675;28;20030;-83
2021/05/01 00:51:41;;;;;;;13.30;6.30;;;;;;;16.10;89.93;97142.13;4955560;28;20083;-84
2021/05/01 00:54:06;;;;;;;16.42;6.53;;;;;;;15.97;91.36;97150.47;4933269;29;20028;-84
2021/05/01 00:56:32;;;;;;;11.88;6.10;;;;;;;15.76;92.33;97140.75;4950476;29;20106;-85
2021/05/01 00:58:58;;;;;;;22.70;7.05;;;;;;;15.79;92.88;97157.50;4951337;29;20039;-84
2021/05/01 01:01:25;;;;;;;17.45;7.15;;;;;;;15.68;93.49;97142.31;4937812;28;20028;-84
2021/05/01 01:03:51;;;;;;;19.48;7.03;;;;;;;15.66;93.98;97152.34;4957403;28;20057;-84
2021/05/01 01:06:17;;;;;;;19.95;7.90;;;;;;;15.52;95.29;97149.19;4957588;28;20042;-84
2021/05/01 01:08:44;;;;;;;16.77;7.95;;;;;;;15.55;95.47;97141.69;4941393;28;20414;-84
2021/05/01 01:11:09;;;;;;;15.63;8.27;;;;;;;15.51;94.72;97142.94;4941300;28;20042;-83
2021/05/01 01:13:36;;;;;;;17.88;7.45;;;;;;;15.58;93.53;97133.31;4939859;28;20097;-84
2021/05/01 01:16:01;;;;;;;16.48;6.88;;;;;;;15.72;92.57;97141.03;4941444;28;20113;-84
2021/05/01 01:18:27;;;;;;;19.83;8.10;;;;;;;15.64;94.41;97138.16;4940840;28;20125;-84
2021/05/01 01:20:53;;;;;;;21.92;7.40;;;;;;;15.61;94.53;97127.66;4957096;28;20038;-84
2021/05/01 01:23:19;;;;;;;21.85;7.43;;;;;;;15.54;95.44;97128.31;4956943;28;20403;-84
2021/05/01 01:25:44;;;;;;;17.00;6.55;;;;;;;15.51;95.30;97134.84;4940844;28;20030;-84
2021/05/01 01:28:10;;;;;;;23.27;6.97;;;;;;;15.51;94.71;97132.16;4941193;28;20027;-83
2021/05/01 01:30:35;;;;;;;15.90;6.45;;;;;;;15.53;94.45;97135.59;4939778;29;20466;-83
2021/05/01 01:33:11;;;;;;;14.77;7.13;;;;;;;15.58;94.86;97130.63;4922319;29;20055;-84
2021/05/01 01:35:38;;;;;;;22.45;6.85;;;;;;;15.58;95.60;97133.31;4931323;28;20026;-84
2021/05/01 01:38:05;;;;;;;14.13;6.15;;;;;;;15.49;95.17;97123.34;4957312;28;20023;-83
2021/05/01 01:40:31;;;;;;;21.55;7.70;;;;;;;15.47;95.37;97128.00;4933109;28;20030;-84
2021/05/01 01:42:56;;;;;;;16.08;8.10;;;;;;;15.48;95.26;97136.94;4940781;28;20038;-83
2021/05/01 01:45:29;;;;;;;25.67;7.25;;;;;;;15.43;96.05;97123.00;4940611;28;20565;-83
2021/05/01 01:47:59;;;;;;;14.63;6.38;;;;;;;15.46;94.74;97139.75;4957272;28;20030;-82
2021/05/01 01:50:25;;;;;;;26.92;6.78;;;;;;;15.44;95.83;97136.31;4940252;28;20022;-83
2021/05/01 01:52:51;;;;;;;18.63;6.38;;;;;;;15.39;96.26;97127.81;4953696;28;20043;-83
2021/05/01 01:55:18;;;;;;;17.17;6.22;;;;;;;15.50;94.92;97135.00;4940649;28;20035;-82
2021/05/01 01:57:45;;;;;;;17.10;6.10;;;;;;;15.40;95.59;97132.22;4948884;28;20051;-83
2021/05/01 02:00:13;;;;;;;16.70;6.40;;;;;;;15.51;94.02;97132.16;4921611;29;20035;-84
2021/05/01 02:02:40;;;;;;;18.17;6.72;;;;;;;15.50;94.95;97135.84;4929238;28;20039;-84
2021/05/01 02:05:07;;;;;;;19.95;6.88;;;;;;;15.51;93.63;97132.16;4933766;28;20525;-83
2021/05/01 02:07:33;;;;;;;15.13;6.15;;;;;;;15.53;94.52;97135.59;4956564;28;20451;-83
2021/05/01 02:09:58;;;;;;;16.63;6.57;;;;;;;15.60;95.34;97131.31;4930329;28;20077;-83
2021/05/01 02:12:24;;;;;;;17.15;6.25;;;;;;;15.55;94.16;97132.72;4926452;28;20030;-83
2021/05/01 02:14:49;;;;;;;14.45;6.32;;;;;;;15.53;93.97;97119.41;4947998;28;20034;-83
2021/05/01 02:17:15;;;;;;;14.05;5.50;;;;;;;15.56;94.90;97121.81;4941286;28;20027;-82
2021/05/01 02:19:40;;;;;;;16.75;5.47;;;;;;;15.57;95.09;97128.91;4956089;28;20089;-83
2021/05/01 02:22:06;;;;;;;15.30;6.60;;;;;;;15.46;95.21;97123.59;4964217;28;20041;-83
2021/05/01 02:24:32;;;;;;;13.20;6.30;;;;;;;15.42;95.31;97130.22;4950167;29;20035;-82
2021/05/01 02:26:57;;;;;;;17.63;6.03;;;;;;;15.47;94.73;97130.69;4952375;28;20403;-81
2021/05/01 02:29:23;;;;;;;10.85;6.10;;;;;;;15.32;94.78;97123.09;4954365;28;20031;-83
2021/05/01 02:31:48;;;;;;;19.25;6.43;;;;;;;15.45;93.96;97148.81;4939918;28;20033;-83
2021/05/01 02:34:14;;;;;;;15.15;6.32;;;;;;;15.41;95.18;97146.56;4956715;28;20023;-83
2021/05/01 02:36:40;;;;;;;9.88;5.60;;;;;;;15.38;93.96;97131.47;4957072;28;20023;-84
2021/05/01 02:39:06;;;;;;;12.10;6.00;;;;;;;15.44;95.04;97141.72;4927303;29;20066;-83
2021/05/01 02:41:33;;;;;;;12.05;6.07;;;;;;;15.38;96.13;97136.88;4961551;28;20085;-83
2021/05/01 02:43:58;;;;;;;15.82;6.47;;;;;;;15.40;96.34;97128.66;4955832;28;20058;-83
2021/05/01 02:46:24;;;;;;;18.42;6.25;;;;;;;15.45;95.38;97137.19;4926929;28;20475;-83
2021/05/01 02:48:49;;;;;;;18.17;7.22;;;;;;;15.40;96.52;97134.91;4941256;29;20110;-83
2021/05/01 02:51:15;;;;;;;18.08;6.30;;;;;;;15.40;96.02;97142.13;4966466;28;20117;-83
2021/05/01 02:53:40;;;;;;;12.85;5.97;;;;;;;15.32;97.26;97134.72;4930523;28;20041;-83
2021/05/01 02:56:06;;;;;;;14.65;6.43;;;;;;;15.31;96.68;97130.34;4930370;28;20067;-83
2021/05/01 02:58:35;;;;;;;16.42;6.45;;;;;;;15.22;97.24;97124.88;4933361;29;20476;-83
2021/05/01 03:01:00;;;;;;;15.88;6.25;;;;;;;15.25;97.58;97133.56;4936166;29;20566;-83
2021/05/01 03:03:26;;;;;;;17.23;6.45;;;;;;;15.22;96.96;97114.97;4932346;28;20030;-83
2021/05/01 03:05:52;;;;;;;14.93;7.20;;;;;;;15.32;96.58;97139.28;4925465;29;20491;-83
2021/05/01 03:08:18;;;;;;;16.40;7.88;;;;;;;15.23;97.79;97140.91;4953692;28;20614;-83
2021/05/01 03:10:43;;;;;;;17.75;8.15;;;;;;;15.22;97.44;97130.28;4966351;28;20084;-83
2021/05/01 03:13:09;;;;;;;21.08;9.00;;;;;;;15.25;98.04;97133.56;4957360;28;20097;-83
2021/05/01 03:15:35;;;;;;;25.05;8.70;;;;;;;15.23;98.04;97142.78;4939664;28;20143;-83
2021/05/01 03:18:00;;;;;;;16.10;8.10;;;;;;;15.26;97.46;97145.19;4939336;28;20478;-83
2021/05/01 03:20:26;;;;;;;19.08;8.63;;;;;;;15.30;97.46;97144.78;4987525;28;20025;-83
2021/05/01 03:22:52;;;;;;;19.00;8.93;;;;;;;15.23;99.41;97148.16;4923520;29;20496;-84
2021/05/01 03:25:18;;;;;;;32.03;11.50;;;;;;;15.20;99.32;97155.50;4939685;28;20041;-83
2021/05/01 03:27:44;;;;;;;36.53;12.55;;;;;;;15.15;99.43;97157.75;4940540;28;20032;-82
2021/05/01 03:30:12;;;;;;;21.73;9.23;;;;;;;15.04;99.08;97143.50;4936975;28;20037;-83
2021/05/01 03:32:38;;;;;;;19.00;6.68;;;;;;;15.13;98.17;97161.56;4925005;28;20038;-83
2021/05/01 03:35:05;;;;;;;18.40;7.65;;;;;;;15.14;99.17;97176.72;4955548;28;20027;-84
2021/05/01 03:37:31;;;;;;;27.85;7.40;;;;;;;15.05;98.49;97172.13;4920319;29;20110;-83
2021/05/01 03:39:56;;;;;;;22.27;6.78;;;;;;;15.09;99.51;97178.97;4949278;28;20574;-83
2021/05/01 03:42:22;;;;;;;26.48;9.85;;;;;;;15.04;99.53;97167.75;4962848;28;20030;-83
2021/05/01 03:44:48;;;;;;;16.85;8.52;;;;;;;15.06;100.00;97163.06;4939291;28;20035;-84
2021/05/01 03:47:13;;;;;;;24.63;9.73;;;;;;;15.11;100.00;97160.84;4939170;28;20031;-83
2021/05/01 03:49:39;;;;;;;31.52;9.35;;;;;;;15.13;99.91;97166.97;4951198;29;20023;-83
2021/05/01 03:52:05;;;;;;;21.08;8.55;;;;;;;15.20;99.63;97165.41;4936501;28;20514;-83
2021/05/01 03:54:30;;;;;;;34.10;8.00;;;;;;;15.27;100.00;97160.34;4954721;28;20070;-84
2021/05/01 03:56:56;;;;;;;26.27;8.52;;;;;;;15.32;99.04;97158.97;4969730;28;20023;-83
2021/05/01 03:59:21;;;;;;;12.45;7.40;;;;;;;15.43;97.30;97164.28;4939278;28;20042;-84
2021/05/01 04:01:47;;;;;;;21.23;7.07;;;;;;;15.41;96.69;97168.13;4969618;28;20482;-76
2021/05/01 04:04:13;;;;;;;17.70;6.80;;;;;;;15.59;95.87;97178.19;4935541;28;20026;-76
2021/05/01 04:06:39;;;;;;;21.27;7.20;;;;;;;15.66;94.66;97176.63;4938919;28;20074;-76
2021/05/01 04:09:05;;;;;;;22.60;8.60;;;;;;;15.75;94.25;97182.22;4948963;28;20517;-76
2021/05/01 04:11:31;;;;;;;19.52;8.93;;;;;;;15.75;93.52;97174.13;4946768;28;20027;-76
2021/05/01 04:13:57;;;;;;;29.45;10.05;;;;;;;15.78;94.29;97185.47;4966241;28;20053;-76
2021/05/01 04:16:22;;;;;;;31.50;9.40;;;;;;;15.81;94.54;97190.59;4969982;28;20114;-76
2021/05/01 04:18:48;;;;;;;34.22;10.20;;;;;;;15.89;94.40;97195.31;4960196;28;20645;-76
2021/05/01 04:21:17;;;;;;;22.73;10.38;;;;;;;15.91;94.41;97199.56;4952090;28;20030;-77
2021/05/01 04:23:43;;;;;;;20.10;10.77;;;;;;;15.94;94.44;97193.91;4955436;28;20038;-75
2021/05/01 04:26:09;;;;;;;22.80;10.73;;;;;;;16.05;93.50;97203.75;4954209;28;20038;-76
2021/05/01 04:28:34;;;;;;;23.50;10.30;;;;;;;16.22;92.41;97208.47;4938691;28;20039;-76
2021/05/01 04:31:00;;;;;;;18.98;10.88;;;;;;;16.37;92.89;97204.38;4932726;29;20495;-74
2021/05/01 04:33:27;;;;;;;25.58;12.60;;;;;;;16.53;91.26;97201.16;4969697;28;20035;-75
2021/05/01 04:35:53;;;;;;;24.05;13.38;;;;;;;16.66;89.67;97189.13;4964874;28;20482;-77
2021/05/01 04:38:19;;;;;;;31.77;13.75;;;;;;;16.93;89.40;97206.47;4945733;28;20101;-76
2021/05/01 04:40:46;;;;;;;31.15;15.32;;;;;;;17.07;87.47;97192.53;4948930;28;20474;-83
2021/05/01 04:43:12;;;;;;;31.63;16.42;;;;;;;17.38;85.63;97201.31;4968231;28;20491;-83
2021/05/01 04:45:38;;;;;;;32.00;14.70;;;;;;;17.41;84.48;97199.16;4943873;29;20055;-83
2021/05/01 04:48:05;;;;;;;30.13;15.82;;;;;;;17.53;83.93;97203.41;4949762;28;20024;-80
2021/05/01 04:50:31;;;;;;;40.58;17.13;;;;;;;17.61;83.58;97194.59;4926006;28;20039;-77
2021/05/01 04:52:57;;;;;;;27.83;12.23;;;;;;;17.72;81.84;97203.38;4935731;28;20117;-74
